^^
Station Historical Data
Daily Summary for March 4, 2018 Units:  Both    English   Metric
« Previous Day
Next Day »
Daily Weekly Monthly Yearly Custom
  High: Low: Average:
Temperature: TemperatureF °F /  -17.8 °C 66.0 °F /  18.9 °C 75.7 °F /  24.3 °C
Dew Point: DewpointF °F /  -17.8 °C 43.7 °F /  6.5 °C 49.6 °F /  9.8 °C
Humidity: Humidity% 29% 40%
Wind Speed: WindSpeedMPHmph /  0km/h - -3.8mph /  -6.1km/h
Wind Gust: WindSpeedGustMPHmph /  0km/h - -
Wind- - NE
Pressure: PressureIn in /  0 hPa 29.52 in /  999.5 hPa -
Precipitation: 0.00 in /  0 mm    
Historical Graphs
 
 
Tabular Data for March 4, 2018
Time Temperature Dew Point Pressure Wind Wind Speed Wind Gust Humidity Rainfall Rate (Hourly) solar Conditions
TemperatureF °F /  -17.8 °C DewpointF °F /  -17.8 °C PressureInin /  0hPa Calm     Humidity% HourlyPrecipInin /  0mm SoftwareType W/m2 Conditions
08:05 66.0 °F /  18.9 °C 52.7 °F /  11.5 °C 29.59in /  1001.9hPa North -999.9mph /  -1609.1km/h -999.0mph /  -1607.7km/h 62% 0.00in /  0mm meteobridge W/m2
08:11 66.7 °F /  19.3 °C 52.0 °F /  11.1 °C 29.60in /  1002.3hPa ENE 4.0mph /  6.4km/h 6.0mph /  9.7km/h 59% 0.00in /  0mm meteobridge W/m2
08:17 66.9 °F /  19.4 °C 51.6 °F /  10.9 °C 29.60in /  1002.3hPa NE 4.9mph /  7.9km/h 8.0mph /  12.9km/h 58% 0.00in /  0mm meteobridge W/m2
08:23 66.6 °F /  19.2 °C 51.8 °F /  11 °C 29.60in /  1002.3hPa NNE 4.9mph /  7.9km/h 9.0mph /  14.5km/h 59% 0.00in /  0mm meteobridge W/m2
08:29 66.7 °F /  19.3 °C 52.0 °F /  11.1 °C 29.61in /  1002.6hPa NE 4.0mph /  6.4km/h 6.0mph /  9.7km/h 59% 0.00in /  0mm meteobridge W/m2
08:35 66.9 °F /  19.4 °C 51.6 °F /  10.9 °C 29.61in /  1002.6hPa NE 8.9mph /  14.3km/h 9.0mph /  14.5km/h 58% 0.00in /  0mm meteobridge W/m2
08:41 66.6 °F /  19.2 °C 51.8 °F /  11 °C 29.61in /  1002.6hPa NE 4.9mph /  7.9km/h 7.0mph /  11.3km/h 59% 0.00in /  0mm meteobridge W/m2
08:47 66.7 °F /  19.3 °C 52.0 °F /  11.1 °C 29.62in /  1002.9hPa NNE 6.0mph /  9.7km/h 6.0mph /  9.7km/h 59% 0.00in /  0mm meteobridge W/m2
08:54 67.3 °F /  19.6 °C 52.0 °F /  11.1 °C 29.62in /  1002.9hPa NE 4.9mph /  7.9km/h 6.0mph /  9.7km/h 58% 0.00in /  0mm meteobridge W/m2
09:00 67.5 °F /  19.7 °C 52.2 °F /  11.2 °C 29.62in /  1002.9hPa NE 4.9mph /  7.9km/h 6.0mph /  9.7km/h 58% 0.00in /  0mm meteobridge W/m2
09:06 67.8 °F /  19.9 °C 52.0 °F /  11.1 °C 29.62in /  1002.9hPa ENE 4.9mph /  7.9km/h 5.0mph /  8km/h 57% 0.00in /  0mm meteobridge W/m2
09:12 68.2 °F /  20.1 °C 52.3 °F /  11.3 °C 29.62in /  1002.9hPa ENE 2.0mph /  3.2km/h 5.0mph /  8km/h 57% 0.00in /  0mm meteobridge W/m2
09:18 69.3 °F /  20.7 °C 53.4 °F /  11.9 °C 29.62in /  1002.9hPa ENE 4.0mph /  6.4km/h 5.0mph /  8km/h 57% 0.00in /  0mm meteobridge W/m2
09:24 70.0 °F /  21.1 °C 53.1 °F /  11.7 °C 29.62in /  1002.9hPa Calm   3.0mph /  4.8km/h 55% 0.00in /  0mm meteobridge W/m2
09:30 70.9 °F /  21.6 °C 53.4 °F /  11.9 °C 29.62in /  1002.9hPa ENE 2.0mph /  3.2km/h 5.0mph /  8km/h 54% 0.00in /  0mm meteobridge W/m2
09:36 71.2 °F /  21.8 °C 54.3 °F /  12.4 °C 29.62in /  1002.9hPa North 2.0mph /  3.2km/h 5.0mph /  8km/h 55% 0.00in /  0mm meteobridge W/m2
09:43 71.2 °F /  21.8 °C 53.8 °F /  12.1 °C 29.62in /  1002.9hPa Calm   2.0mph /  3.2km/h 54% 0.00in /  0mm meteobridge W/m2
09:49 72.1 °F /  22.3 °C 54.5 °F /  12.5 °C 29.63in /  1003.3hPa NNE 0.9mph /  1.4km/h 2.0mph /  3.2km/h 54% 0.00in /  0mm meteobridge W/m2
09:55 72.7 °F /  22.6 °C 54.0 °F /  12.2 °C 29.63in /  1003.3hPa NW 2.9mph /  4.7km/h 5.0mph /  8km/h 52% 0.00in /  0mm meteobridge W/m2
10:01 73.4 °F /  23 °C 54.7 °F /  12.6 °C 29.63in /  1003.3hPa NNW 2.0mph /  3.2km/h 2.0mph /  3.2km/h 52% 0.00in /  0mm meteobridge W/m2
10:07 73.4 °F /  23 °C 54.1 °F /  12.3 °C 29.63in /  1003.3hPa NE 2.0mph /  3.2km/h 3.0mph /  4.8km/h 51% 0.00in /  0mm meteobridge W/m2
10:13 74.1 °F /  23.4 °C 54.9 °F /  12.7 °C 29.63in /  1003.3hPa Calm   4.0mph /  6.4km/h 51% 0.00in /  0mm meteobridge W/m2
10:19 74.3 °F /  23.5 °C 54.5 °F /  12.5 °C 29.63in /  1003.3hPa North 4.0mph /  6.4km/h 6.0mph /  9.7km/h 50% 0.00in /  0mm meteobridge W/m2
10:25 74.5 °F /  23.6 °C 54.1 °F /  12.3 °C 29.63in /  1003.3hPa Calm   3.0mph /  4.8km/h 49% 0.00in /  0mm meteobridge W/m2
10:32 73.9 °F /  23.3 °C 53.6 °F /  12 °C 29.62in /  1002.9hPa NNE 4.0mph /  6.4km/h 7.0mph /  11.3km/h 49% 0.00in /  0mm meteobridge W/m2
10:38 72.9 °F /  22.7 °C 53.6 °F /  12 °C 29.62in /  1002.9hPa NNE 2.0mph /  3.2km/h 5.0mph /  8km/h 51% 0.00in /  0mm meteobridge W/m2
10:44 73.4 °F /  23 °C 54.1 °F /  12.3 °C 29.62in /  1002.9hPa NE 4.0mph /  6.4km/h 6.0mph /  9.7km/h 51% 0.00in /  0mm meteobridge W/m2
10:50 73.8 °F /  23.2 °C 53.4 °F /  11.9 °C 29.63in /  1003.3hPa NNW 4.9mph /  7.9km/h 6.0mph /  9.7km/h 49% 0.00in /  0mm meteobridge W/m2
10:56 74.7 °F /  23.7 °C 54.3 °F /  12.4 °C 29.62in /  1002.9hPa WNW 6.0mph /  9.7km/h 6.0mph /  9.7km/h 49% 0.00in /  0mm meteobridge W/m2
11:04 75.4 °F /  24.1 °C 53.2 °F /  11.8 °C 29.62in /  1002.9hPa NNE 12.1mph /  19.5km/h 13.0mph /  20.9km/h 46% 0.00in /  0mm meteobridge W/m2
11:12 74.8 °F /  23.8 °C 52.7 °F /  11.5 °C 29.62in /  1002.9hPa NNE 2.0mph /  3.2km/h 5.0mph /  8km/h 46% 0.00in /  0mm meteobridge W/m2
11:18 75.7 °F /  24.3 °C 52.9 °F /  11.6 °C 29.62in /  1002.9hPa NE 4.0mph /  6.4km/h 11.0mph /  17.7km/h 45% 0.00in /  0mm meteobridge W/m2
11:25 76.3 °F /  24.6 °C 50.9 °F /  10.5 °C 29.61in /  1002.6hPa NE 2.9mph /  4.7km/h 16.0mph /  25.7km/h 41% 0.00in /  0mm meteobridge W/m2
11:31 76.1 °F /  24.5 °C 51.3 °F /  10.7 °C 29.62in /  1002.9hPa NNE 6.0mph /  9.7km/h 18.0mph /  29km/h 42% 0.00in /  0mm meteobridge W/m2
11:37 76.5 °F /  24.7 °C 52.3 °F /  11.3 °C 29.61in /  1002.6hPa NNE 11.0mph /  17.7km/h 11.0mph /  17.7km/h 43% 0.00in /  0mm meteobridge W/m2
11:59 75.7 °F /  24.3 °C 52.3 °F /  11.3 °C 29.61in /  1002.6hPa North 6.9mph /  11.1km/h 13.0mph /  20.9km/h 44% 0.00in /  0mm meteobridge W/m2
12:05 76.3 °F /  24.6 °C 51.4 °F /  10.8 °C 29.61in /  1002.6hPa NNW 10.1mph /  16.3km/h 16.0mph /  25.7km/h 42% 0.00in /  0mm meteobridge W/m2
12:11 75.9 °F /  24.4 °C 51.8 °F /  11 °C 29.61in /  1002.6hPa NNW 13.0mph /  20.9km/h 15.0mph /  24.1km/h 43% 0.00in /  0mm meteobridge W/m2
12:17 77.4 °F /  25.2 °C 52.5 °F /  11.4 °C 29.61in /  1002.6hPa NNE 6.0mph /  9.7km/h 20.0mph /  32.2km/h 42% 0.00in /  0mm meteobridge W/m2
12:24 77.0 °F /  25 °C 52.9 °F /  11.6 °C 29.60in /  1002.3hPa NE 8.9mph /  14.3km/h 13.0mph /  20.9km/h 43% 0.00in /  0mm meteobridge W/m2
12:30 77.0 °F /  25 °C 52.2 °F /  11.2 °C 29.60in /  1002.3hPa North 6.0mph /  9.7km/h 12.0mph /  19.3km/h 42% 0.00in /  0mm meteobridge W/m2
12:36 78.1 °F /  25.6 °C 53.1 °F /  11.7 °C 29.60in /  1002.3hPa NE 6.9mph /  11.1km/h 19.0mph /  30.6km/h 42% 0.00in /  0mm meteobridge W/m2
12:42 78.3 °F /  25.7 °C 53.2 °F /  11.8 °C 29.59in /  1001.9hPa North 4.9mph /  7.9km/h 10.0mph /  16.1km/h 42% 0.00in /  0mm meteobridge W/m2
12:48 77.9 °F /  25.5 °C 52.9 °F /  11.6 °C 29.59in /  1001.9hPa NNW 12.1mph /  19.5km/h 19.0mph /  30.6km/h 42% 0.00in /  0mm meteobridge W/m2
12:54 78.1 °F /  25.6 °C 53.1 °F /  11.7 °C 29.59in /  1001.9hPa NNE 8.9mph /  14.3km/h 13.0mph /  20.9km/h 42% 0.00in /  0mm meteobridge W/m2
13:00 78.4 °F /  25.8 °C 52.7 °F /  11.5 °C 29.59in /  1001.9hPa North 0.9mph /  1.4km/h 8.0mph /  12.9km/h 41% 0.00in /  0mm meteobridge W/m2
13:06 78.3 °F /  25.7 °C 52.7 °F /  11.5 °C 29.59in /  1001.9hPa North 4.9mph /  7.9km/h 12.0mph /  19.3km/h 41% 0.00in /  0mm meteobridge W/m2
13:12 77.0 °F /  25 °C 52.2 °F /  11.2 °C 29.59in /  1001.9hPa ENE 4.0mph /  6.4km/h 14.0mph /  22.5km/h 42% 0.00in /  0mm meteobridge W/m2
13:18 76.3 °F /  24.6 °C 51.4 °F /  10.8 °C 29.59in /  1001.9hPa NNE 11.0mph /  17.7km/h 20.0mph /  32.2km/h 42% 0.00in /  0mm meteobridge W/m2
13:24 77.2 °F /  25.1 °C 52.3 °F /  11.3 °C 29.59in /  1001.9hPa North 8.9mph /  14.3km/h 14.0mph /  22.5km/h 42% 0.00in /  0mm meteobridge W/m2
13:30 78.6 °F /  25.9 °C 52.9 °F /  11.6 °C 29.59in /  1001.9hPa NNE 4.0mph /  6.4km/h 15.0mph /  24.1km/h 41% 0.00in /  0mm meteobridge W/m2
13:36 78.4 °F /  25.8 °C 51.4 °F /  10.8 °C 29.58in /  1001.6hPa SSE 2.9mph /  4.7km/h 8.0mph /  12.9km/h 39% 0.00in /  0mm meteobridge W/m2
13:43 77.9 °F /  25.5 °C 52.3 °F /  11.3 °C 29.59in /  1001.9hPa NNW 8.1mph /  13km/h 11.0mph /  17.7km/h 41% 0.00in /  0mm meteobridge W/m2
13:49 78.6 °F /  25.9 °C 51.6 °F /  10.9 °C 29.58in /  1001.6hPa NNE 6.9mph /  11.1km/h 13.0mph /  20.9km/h 39% 0.00in /  0mm meteobridge W/m2
13:55 79.5 °F /  26.4 °C 51.6 °F /  10.9 °C 29.58in /  1001.6hPa North 11.0mph /  17.7km/h 19.0mph /  30.6km/h 38% 0.00in /  0mm meteobridge W/m2
14:01 79.9 °F /  26.6 °C 51.3 °F /  10.7 °C 29.57in /  1001.2hPa North 4.0mph /  6.4km/h 16.0mph /  25.7km/h 37% 0.00in /  0mm meteobridge W/m2
14:07 79.7 °F /  26.5 °C 50.4 °F /  10.2 °C 29.57in /  1001.2hPa NE 10.1mph /  16.3km/h 17.0mph /  27.4km/h 36% 0.00in /  0mm meteobridge W/m2
14:13 79.0 °F /  26.1 °C 50.5 °F /  10.3 °C 29.57in /  1001.2hPa NE 0.9mph /  1.4km/h 11.0mph /  17.7km/h 37% 0.00in /  0mm meteobridge W/m2
14:19 79.9 °F /  26.6 °C 48.2 °F /  9 °C 29.57in /  1001.2hPa NW 12.1mph /  19.5km/h 24.0mph /  38.6km/h 33% 0.00in /  0mm meteobridge W/m2
14:26 79.9 °F /  26.6 °C 48.9 °F /  9.4 °C 29.57in /  1001.2hPa North 13.0mph /  20.9km/h 17.0mph /  27.4km/h 34% 0.00in /  0mm meteobridge W/m2
14:32 80.4 °F /  26.9 °C 49.5 °F /  9.7 °C 29.56in /  1000.9hPa North 13.0mph /  20.9km/h 15.0mph /  24.1km/h 34% 0.00in /  0mm meteobridge W/m2
14:38 80.8 °F /  27.1 °C 47.3 °F /  8.5 °C 29.56in /  1000.9hPa NNE 14.1mph /  22.7km/h 26.0mph /  41.8km/h 31% 0.00in /  0mm meteobridge W/m2
14:44 79.5 °F /  26.4 °C 47.1 °F /  8.4 °C 29.55in /  1000.6hPa NNW 8.1mph /  13km/h 18.0mph /  29km/h 32% 0.00in /  0mm meteobridge W/m2
14:50 79.9 °F /  26.6 °C 48.2 °F /  9 °C 29.55in /  1000.6hPa NNW 13.0mph /  20.9km/h 19.0mph /  30.6km/h 33% 0.00in /  0mm meteobridge W/m2
14:56 80.1 °F /  26.7 °C 47.5 °F /  8.6 °C 29.55in /  1000.6hPa NNE 11.0mph /  17.7km/h 18.0mph /  29km/h 32% 0.00in /  0mm meteobridge W/m2
15:02 80.4 °F /  26.9 °C 48.7 °F /  9.3 °C 29.55in /  1000.6hPa North 0.9mph /  1.4km/h 13.0mph /  20.9km/h 33% 0.00in /  0mm meteobridge W/m2
15:08 81.0 °F /  27.2 °C 48.4 °F /  9.1 °C 29.55in /  1000.6hPa NNE 17.0mph /  27.4km/h 20.0mph /  32.2km/h 32% 0.00in /  0mm meteobridge W/m2
15:15 80.4 °F /  26.9 °C 48.7 °F /  9.3 °C 29.55in /  1000.6hPa NE 2.0mph /  3.2km/h 10.0mph /  16.1km/h 33% 0.00in /  0mm meteobridge W/m2
15:21 81.1 °F /  27.3 °C 47.7 °F /  8.7 °C 29.55in /  1000.6hPa NE 2.0mph /  3.2km/h 5.0mph /  8km/h 31% 0.00in /  0mm meteobridge W/m2
15:27 80.4 °F /  26.9 °C 46.9 °F /  8.3 °C 29.55in /  1000.6hPa NE 12.1mph /  19.5km/h 16.0mph /  25.7km/h 31% 0.00in /  0mm meteobridge W/m2
15:33 79.2 °F /  26.2 °C 46.8 °F /  8.2 °C 29.54in /  1000.2hPa NNW 6.0mph /  9.7km/h 11.0mph /  17.7km/h 32% 0.00in /  0mm meteobridge W/m2
15:39 79.9 °F /  26.6 °C 48.2 °F /  9 °C 29.54in /  1000.2hPa NNE 11.0mph /  17.7km/h 18.0mph /  29km/h 33% 0.00in /  0mm meteobridge W/m2
15:45 79.2 °F /  26.2 °C 47.7 °F /  8.7 °C 29.54in /  1000.2hPa North 6.0mph /  9.7km/h 12.0mph /  19.3km/h 33% 0.00in /  0mm meteobridge W/m2
15:52 81.0 °F /  27.2 °C 48.4 °F /  9.1 °C 29.53in /  999.9hPa North 14.1mph /  22.7km/h 19.0mph /  30.6km/h 32% 0.00in /  0mm meteobridge W/m2
15:58 81.0 °F /  27.2 °C 47.5 °F /  8.6 °C 29.54in /  1000.2hPa North 11.0mph /  17.7km/h 19.0mph /  30.6km/h 31% 0.00in /  0mm meteobridge W/m2
16:04 81.9 °F /  27.7 °C 48.2 °F /  9 °C 29.53in /  999.9hPa North 4.0mph /  6.4km/h 13.0mph /  20.9km/h 31% 0.00in /  0mm meteobridge W/m2
16:10 81.1 °F /  27.3 °C 46.8 °F /  8.2 °C 29.53in /  999.9hPa North 4.9mph /  7.9km/h 20.0mph /  32.2km/h 30% 0.00in /  0mm meteobridge W/m2
16:16 81.0 °F /  27.2 °C 47.5 °F /  8.6 °C 29.53in /  999.9hPa North 4.9mph /  7.9km/h 19.0mph /  30.6km/h 31% 0.00in /  0mm meteobridge W/m2
16:22 81.3 °F /  27.4 °C 46.9 °F /  8.3 °C 29.53in /  999.9hPa North 6.9mph /  11.1km/h 17.0mph /  27.4km/h 30% 0.00in /  0mm meteobridge W/m2
16:28 81.0 °F /  27.2 °C 46.6 °F /  8.1 °C 29.53in /  999.9hPa North 11.0mph /  17.7km/h 15.0mph /  24.1km/h 30% 0.00in /  0mm meteobridge W/m2
16:34 81.0 °F /  27.2 °C 46.6 °F /  8.1 °C 29.53in /  999.9hPa NNW 8.9mph /  14.3km/h 20.0mph /  32.2km/h 30% 0.00in /  0mm meteobridge W/m2
16:53 81.0 °F /  27.2 °C 45.7 °F /  7.6 °C 29.52in /  999.5hPa West 4.0mph /  6.4km/h 15.0mph /  24.1km/h 29% 0.00in /  0mm meteobridge W/m2
16:59 81.0 °F /  27.2 °C 46.6 °F /  8.1 °C 29.53in /  999.9hPa NE 8.9mph /  14.3km/h 17.0mph /  27.4km/h 30% 0.00in /  0mm meteobridge W/m2
17:05 80.8 °F /  27.1 °C 45.5 °F /  7.5 °C 29.52in /  999.5hPa WNW 4.0mph /  6.4km/h 7.0mph /  11.3km/h 29% 0.00in /  0mm meteobridge W/m2
17:26 80.6 °F /  27 °C 45.3 °F /  7.4 °C 29.52in /  999.5hPa North 2.0mph /  3.2km/h 12.0mph /  19.3km/h 29% 0.00in /  0mm meteobridge W/m2
17:48 80.1 °F /  26.7 °C 45.9 °F /  7.7 °C 29.52in /  999.5hPa North 6.9mph /  11.1km/h 16.0mph /  25.7km/h 30% 0.00in /  0mm meteobridge W/m2
17:54 79.9 °F /  26.6 °C 45.7 °F /  7.6 °C 29.52in /  999.5hPa North 4.0mph /  6.4km/h 8.0mph /  12.9km/h 30% 0.00in /  0mm meteobridge W/m2
18:00 80.4 °F /  26.9 °C 46.2 °F /  7.9 °C 29.52in /  999.5hPa SW 4.9mph /  7.9km/h 12.0mph /  19.3km/h 30% 0.00in /  0mm meteobridge W/m2
18:06 80.4 °F /  26.9 °C 46.2 °F /  7.9 °C 29.52in /  999.5hPa WSW 2.0mph /  3.2km/h 12.0mph /  19.3km/h 30% 0.00in /  0mm meteobridge W/m2
18:13 80.1 °F /  26.7 °C 45.0 °F /  7.2 °C 29.52in /  999.5hPa North 10.1mph /  16.3km/h 23.0mph /  37km/h 29% 0.00in /  0mm meteobridge W/m2
18:19 79.7 °F /  26.5 °C 44.6 °F /  7 °C 29.52in /  999.5hPa NNW 13.0mph /  20.9km/h 18.0mph /  29km/h 29% 0.00in /  0mm meteobridge W/m2
18:25 79.2 °F /  26.2 °C 44.2 °F /  6.8 °C 29.53in /  999.9hPa North 6.0mph /  9.7km/h 18.0mph /  29km/h 29% 0.00in /  0mm meteobridge W/m2
18:31 79.0 °F /  26.1 °C 44.1 °F /  6.7 °C 29.53in /  999.9hPa NNW 11.0mph /  17.7km/h 14.0mph /  22.5km/h 29% 0.00in /  0mm meteobridge W/m2
18:37 78.8 °F /  26 °C 43.9 °F /  6.6 °C 29.53in /  999.9hPa North 8.9mph /  14.3km/h 11.0mph /  17.7km/h 29% 0.00in /  0mm meteobridge W/m2
18:43 78.6 °F /  25.9 °C 43.7 °F /  6.5 °C 29.53in /  999.9hPa NNW 8.1mph /  13km/h 22.0mph /  35.4km/h 29% 0.00in /  0mm meteobridge W/m2
18:49 78.6 °F /  25.9 °C 44.6 °F /  7 °C 29.53in /  999.9hPa NNW 6.0mph /  9.7km/h 15.0mph /  24.1km/h 30% 0.00in /  0mm meteobridge W/m2
18:55 78.4 °F /  25.8 °C 44.4 °F /  6.9 °C 29.53in /  999.9hPa NW 4.9mph /  7.9km/h 11.0mph /  17.7km/h 30% 0.00in /  0mm meteobridge W/m2
19:01 78.3 °F /  25.7 °C 44.2 °F /  6.8 °C 29.53in /  999.9hPa WSW 4.0mph /  6.4km/h 4.0mph /  6.4km/h 30% 0.00in /  0mm meteobridge W/m2
19:08 78.3 °F /  25.7 °C 44.2 °F /  6.8 °C 29.54in /  1000.2hPa WSW 4.0mph /  6.4km/h -999.0mph /  -1607.7km/h 30% 0.00in /  0mm meteobridge W/m2
19:14 78.3 °F /  25.7 °C 44.2 °F /  6.8 °C 29.54in /  1000.2hPa WSW 4.0mph /  6.4km/h -999.0mph /  -1607.7km/h 30% 0.00in /  0mm meteobridge W/m2
Regenstein, Windhoek, Namibia
Compliments of Weather Underground - 2.5 mb